The Original Growler and Sunday's Half

Sunday, May 26, 2019 7:00 AM (GMT-6) - Final results

Race info
Sport: Cycling - mtn cross-country
Location: Gunnison, CO, United States
Start type: Mass start
Racers: 211
Timed on: Other
Timed with: Chip timing
Updated: Tuesday, June 11, 2019 4:36 PM (GMT-6)
Organized by: CJ Sports Timing
Race website: https//cjtiming.com

Contact organizer

Use this form to send an email to the organizer.

Your name
Your email address
Confirm email address
Message to organizer
Send

  • The Full Growler - Overall
Place Bib Racer name Affiliation Category Finish time
1150Ben PARMANNCGR Pro Men 5:25:42--100%27.94%26.76%
26timon FISHSticky Racing Pro Men 5:28:56+3:14+0.99%99.02%27.22%26.03%
39Tyler JONESKind Bikes and Skis | Cutaway USA Pro Men 5:33:54+8:12+2.52%97.54%26.13%24.91%
4129Samuel DOLZANIHONEY STINGER / BONTRAGER Pro Men 5:40:48+15:06+4.64%95.57%24.60%23.36%
517Thomas HERMANGroove Subaru Pro Men 5:46:09+20:27+6.28%94.09%23.41%22.16%
6146Chris ALSTRINWhite Pine Athletics / Carbo Rocket Pro Men 5:49:19+23:37+7.25%93.24%22.71%21.45%
727Wesley SANDOVAL 40-49 Men 6:00:31+34:49+10.69%90.34%20.24%18.93%
851Zachary RICHARDSONWestern Colorado University Collegiate Men 6:05:53+40:11+12.34%89.02%19.05%17.72%
967Bryan ALDERSTrainingPeaks/Yeti/Pactimo Pro Men 6:07:02+41:20+12.69%88.74%18.79%17.46%
10128jiri SENKYRIK Pro Men 6:07:59+42:17+12.98%88.51%18.58%17.25%
1188Chris SHANNONNorth End Dental (Colorado Springs) Pro Men 6:10:58+45:16+13.90%87.80%17.92%16.58%
12100Seth HARNEYTeam Meso Harney Pro Men 6:11:26+45:44+14.04%87.69%17.82%16.47%
1366Darrell ROUNDYRocky Mountain Racing Pro Men 6:16:50+51:08+15.70%86.43%16.63%15.26%
14139Nate WILLIARD Pro Men 6:17:37+51:55+15.94%86.25%16.45%15.08%
15144Bryan DILLON Open Singlespeed Men 6:19:16+53:34+16.45%85.88%16.09%14.71%
16136Alex SCHULTZThe Kind Bikes and Skis 18-29 Men 6:20:57+55:15+16.96%85.50%15.72%14.33%
17153Brian JENSENTradewind Energy Cycling Team 40-49 Men 6:22:18+56:36+17.38%85.19%15.42%14.03%
1815Tom KAVANAUGHHigher Cadence Montrose,CO 30-39 Men 6:22:29+56:47+17.43%85.15%15.38%13.99%
1980Andre BRETONNorthern Colorado Grassroots Riders 40-49 Men 6:23:14+57:32+17.66%84.99%15.21%13.82%
2016Ryan MARSHALLBasalt Bike & Ski 30-39 Men 6:23:45+58:03+17.82%84.87%15.10%13.70%
2135Kevin CONERLY Pro Men 6:28:53+1:03:11+19.40%83.75%13.96%12.55%
2219Bret Billings Pro Men 6:34:00+1:08:18+20.97%82.66%12.83%11.40%
23145Dan DURLANDPro Cycling Open Singlespeed Men 6:35:10+1:09:28+21.33%82.42%12.57%11.14%
2493Curt WILHELMElevated Legs/MTBCoach.com 50-59 Men 6:36:41+1:10:59+21.79%82.11%12.23%10.79%
25101Eric FOSSELLCOS Racing 30-39 Men 6:37:37+1:11:55+22.08%81.91%12.03%10.58%
26109Matt ARONSON Open Singlespeed Men 6:39:04+1:13:22+22.53%81.62%11.71%10.26%
2739Marvin SANDOVAL 40-49 Men 6:42:10+1:16:28+23.48%80.99%11.02%9.56%
2822Nathan COLLIERHoney Stinger/Bontrager MTB Team Pro Men 6:43:40+1:17:58+23.94%80.69%10.69%9.22%
2991Michael MARTIN 30-39 Men 6:43:48+1:18:06+23.98%80.66%10.66%9.19%
30118Tim WILCOX 30-39 Men 6:45:02+1:19:20+24.36%80.41%10.39%8.92%
31119John RYAN 30-39 Men 6:46:17+1:20:35+24.74%80.17%10.11%8.64%
3223Kevin KAUCHERbikeparts.com 30-39 Men 6:47:05+1:21:23+24.99%80.01%9.93%8.46%
3324Nathan BERGElevate PHW / Bikeworks 40-49 Men 6:49:26+1:23:44+25.71%79.55%9.41%7.93%
3464Jack MORGAN Open Singlespeed Men 6:50:01+1:24:19+25.89%79.44%9.28%7.80%
3540Mark NESLINEVAIL Jr Cycling Open Singlespeed Men 6:50:40+1:24:58+26.09%79.31%9.14%7.65%
3625Kevin JACOBILimelight 30-39 Men 6:52:59+1:27:17+26.80%78.87%8.63%7.13%
3737Joe SWEENEY 30-39 Men 6:58:08+1:32:26+28.38%77.89%7.49%5.97%
38149Seth HOLMES 30-39 Men 6:59:54+1:34:12+28.92%77.57%7.10%5.57%
39105Jefe BRANHAMWaltworks Open Singlespeed Men 7:00:19+1:34:37+29.05%77.49%7.01%5.48%
40113Russ PATTERSON 30-39 Men 7:00:31+1:34:49+29.11%77.45%6.96%5.43%
4154Jeremiah GREIF 30-39 Men 7:01:45+1:36:03+29.49%77.23%6.69%5.16%
42123chris PARKSoinkerboinkerporkerpackers 40-49 Men 7:02:02+1:36:20+29.58%77.17%6.63%5.09%
4352Michael FRANCORaceco / Elevated Legs / MTBCoach 30-39 Men 7:02:08+1:36:26+29.61%77.16%6.60%5.07%
44135Darren MUSE 40-49 Men 7:02:41+1:36:59+29.78%77.06%6.48%4.95%
45147Thomas VERRYRock N Roll Sports 40-49 Men 7:06:18+1:40:36+30.89%76.40%5.68%4.13%
4618Jason IRWINProCycling Open Singlespeed Men 7:06:24+1:40:42+30.92%76.38%5.66%4.11%
4782Seth MICHAELLost Trail Cycle Co. Pro Men 7:07:02+1:41:20+31.11%76.27%5.52%3.97%
485John PHELPS 30-39 Men 7:09:04+1:43:22+31.74%75.91%5.07%3.51%
49137Heath SPECKMAN 30-39 Men 7:09:45+1:44:03+31.95%75.79%4.92%3.36%
5034Eric FRESON Open Singlespeed Men 7:11:34+1:45:52+32.50%75.47%4.52%2.95%
5195Devon PIADouble Shot Cyclery 18-29 Men 7:14:24+1:48:42+33.37%74.98%3.89%2.31%
5275Heiner MESSNER 40-49 Men 7:15:47+1:50:05+33.80%74.74%3.58%2.00%
5343James FORDPedal Racing 30-39 Men 7:18:23+1:52:41+34.60%74.30%3.01%1.42%
54120Eddie URCADEZGroove Subaru Excel Sports 50-59 Men 7:20:08+1:54:26+35.13%74.00%2.62%1.02%
55108Keith FISHERcraftsmen construction 40-49 Men 7:23:32+1:57:50+36.18%73.43%1.87%0.26%
5630David ANSEL 18-29 Men 7:24:41+1:58:59+36.53%73.24%1.61%0.00%
5736Mike DRIVERVisitFruita.com 50-59 Men 7:26:34+2:00:52+37.11%72.93%1.20%-0.42%
58142Matthew ERICKSON 40-49 Men 7:33:46+2:08:04+39.32%71.78%-0.40%-2.04%
59106neil BECWAR 40-49 Men 7:37:24+2:11:42+40.44%71.21%-1.20%-2.86%
608Sparky MOIR SEARSPivot / MRP / Ergon Pro Women 7:38:01+2:12:19+40.63%71.11%-1.34%-3.00%
613Jarral Ryter 50-59 Men 7:40:08+2:14:26+41.28%70.78%-1.80%-3.47%
624Tracy THELENThelen Coaching / ProCycling Pro Women 7:41:45+2:16:03+41.77%70.54%-2.16%-3.84%
6371Tim TRACYWalts Bike Shop 30-39 Men 7:43:30+2:17:48+42.31%70.27%-2.55%-4.23%
6487Eamonn ROONEYThe Irish Bastard 50-59 Men 7:45:34+2:19:52+42.94%69.96%-3.01%-4.70%
6565Jeremy ISAACCirca Real Estate Group 30-39 Men 7:45:36+2:19:54+42.95%69.95%-3.01%-4.70%
66140Erin WEBERFoundation Cycles/Enduro Bites Pro Women 7:47:50+2:22:08+43.64%69.62%-3.51%-5.21%
6741Robert UMLANDPhoenix Cyclery 30-39 Men 7:48:33+2:22:51+43.86%69.51%-3.67%-5.37%
68151Stuart WALSWORTHPeopleForBikes 50-59 Men 7:49:06+2:23:24+44.03%69.43%-3.79%-5.49%
6978carl BENEFIEL 40-49 Men 7:52:50+2:27:08+45.17%68.88%-4.61%-6.33%
7011Laura ANDERSON 40-49 Women 7:57:17+2:31:35+46.54%68.24%-5.60%-7.33%
71125Jonathan LANGWORTHYTeam Red Wheel 30-39 Men 8:01:30+2:35:48+47.84%67.64%-6.53%-8.28%
7284Rob RINGLE Pro Men 8:02:15+2:36:33+48.07%67.54%-6.70%-8.45%
73126Justin NELSON 40-49 Men 8:03:58+2:38:16+48.59%67.30%-7.08%-8.83%
7445Warrick JERVIS 40-49 Men 8:04:44+2:39:02+48.83%67.19%-7.25%-9.01%
7549Joel BUDACKI 40-49 Men 8:07:22+2:41:40+49.64%66.83%-7.83%-9.60%
7686Alex KNOLMontbike Amposta 40-49 Men 8:09:57+2:44:15+50.43%66.48%-8.40%-10.18%
7721Lance PALUMBO Open Singlespeed Men 8:11:34+2:45:52+50.93%66.26%-8.76%-10.54%
7829Mark HEFFRON 40-49 Men 8:11:36+2:45:54+50.94%66.25%-8.77%-10.55%
7996John MOUNT 40-49 Men 8:14:06+2:48:24+51.70%65.92%-9.32%-11.11%
80155Greg EXLINE 40-49 Men 8:16:41+2:50:59+52.50%65.57%-9.89%-11.69%
8185Morgan HILL 30-39 Women 8:18:50+2:53:08+53.16%65.29%-10.37%-12.18%
82156Kelly RyanSan Juan Huts 30-39 Women 8:19:45+2:54:03+53.44%65.17%-10.57%-12.38%
83112Donald RANSIN 18-29 Men 8:23:47+2:58:05+54.68%64.65%-11.46%-13.29%
84111Edward ULSCHMID 18-29 Men 8:23:48+2:58:06+54.68%64.65%-11.47%-13.29%
84114Kristopher AUGER 18-29 Men 8:23:48+2:58:06+54.68%64.65%-11.47%-13.29%
86152Sarah STUBBEgO Orthopedics 40-49 Women 8:25:24+2:59:42+55.17%64.44%-11.82%-13.65%
8759Matt HUNTBurrito Slayers Clydesdale (over 200 lbs) 8:32:44+3:07:02+57.43%63.52%-13.44%-15.30%
8833Megan RIEPMA 30-39 Women 8:34:01+3:08:19+57.82%63.36%-13.73%-15.59%
8963Dan GUMPHoney Stinger Hive 40-49 Men 8:43:12+3:17:30+60.64%62.25%-15.76%-17.66%
90116Brae PATTENAll Sports Replay Open Singlespeed Men 8:44:02+3:18:20+60.89%62.15%-15.94%-17.84%
9199Angela HARNEYTeam Meso Harney 30-39 Women 8:44:16+3:18:34+60.97%62.12%-15.99%-17.90%
9258Randall ALFANO Clydesdale (over 200 lbs) 8:48:22+3:22:40+62.22%61.64%-16.90%-18.82%
9376Greg CONROY 30-39 Men 8:48:30+3:22:48+62.27%61.63%-16.93%-18.85%
9432Chris WITHERSOld Greenwich Builders 50-59 Men 8:52:22+3:26:40+63.45%61.18%-17.79%-19.72%
9590Fritz KREMBS 40-49 Men 8:53:08+3:27:26+63.69%61.09%-17.96%-19.89%
96117Michael O'SHEAScurvy Dogs 30-39 Men 8:53:31+3:27:49+63.81%61.05%-18.04%-19.98%
97134Michael KRAYNA 30-39 Men 8:55:22+3:29:40+64.37%60.84%-18.45%-20.39%
9861Brett HAWKINS 40-49 Men 8:58:16+3:32:34+65.26%60.51%-19.09%-21.04%
9960Dominic GARCIA 40-49 Men 8:58:27+3:32:45+65.32%60.49%-19.13%-21.09%
10055Jason JANELLE 40-49 Men 9:00:23+3:34:41+65.91%60.27%-19.56%-21.52%
101110Casey MARTINMountain Wellness 18-29 Men 9:01:48+3:36:06+66.35%60.11%-19.87%-21.84%
10210Janet ROSSDeterminator 50+ Women 9:05:29+3:39:47+67.48%59.71%-20.69%-22.67%
10369Sean STEEVESRadio Free Denver Cycling Club 40-49 Men 9:05:50+3:40:08+67.59%59.67%-20.76%-22.75%
104131Aaron JOHNSON 30-39 Men 9:08:40+3:42:58+68.46%59.36%-21.39%-23.38%
105122Gabriel GOMEZ 40-49 Men 9:11:49+3:46:07+69.42%59.02%-22.09%-24.09%
106115Gary PIERSONWestern Mountain Sports 60+ Men 9:13:29+3:47:47+69.94%58.85%-22.46%-24.47%
10777Jordan PYHTILAAre we there yet racing Clydesdale (over 200 lbs) 9:13:38+3:47:56+69.98%58.83%-22.49%-24.50%
108148Devan HANEY 18-29 Women 9:19:22+3:53:40+71.74%58.23%-23.76%-25.79%
109132Zach JOHNSONSol Luna Soalr 30-39 Men 9:19:27+3:53:45+71.77%58.22%-23.78%-25.81%
110138Daniel MEYER 30-39 Men 9:22:17+3:56:35+72.64%57.92%-24.40%-26.45%
110141James SCHAFERA1 Fiber Optics LLC/ Misfits 30-39 Men 9:22:17+3:56:35+72.64%57.92%-24.40%-26.45%
-133Zachary DOLZANIHoney Stinger Pro Men DNF-----
-56Matt JONESMore Better Open Singlespeed Men DNF-----
-38Adam YOCULAN 40-49 Men DNF-----
-102Cesar TIDRICKRubber Side Down 18-29 Men DNF-----
-72Glenn FARRANT 40-49 Men DNF-----
-50Jeff STEINHOFF 40-49 Men DNF-----
-73Bernie LAFLEUR 50-59 Men DNF-----
-79Harry MALECKI 30-39 Men DNF-----
-97Donald DORITYAvout 40-49 Men DNF-----
-31Michael FLOYD 30-39 Men DNF-----
-98Kyle GILLILAND 30-39 Men DNF-----
-47Chris ARTERBURNPeople For Bikes 40-49 Men DNF-----
-48Jennifer BOLDRYPeople For Bikes 40-49 Women DNF-----
-44Chris BROCKMEIER Clydesdale (over 200 lbs) DNF-----
-124Chad MORTENSEN 40-49 Men DNF-----
-154Joshua GROSSMAN 30-39 Men DNF-----
-89Olivia SHANNONNorth End Dental (Colorado Springs) 18-29 Women DNF-----
-14Michael GIRALDI Open Singlespeed Men DNF-----
-42Grahan WHITAKER 40-49 Men DNF-----
-103Matthew BOUMPHREY 30-39 Men DNF-----
-94Michelle FRECKLETON 40-49 Women DNF-----
-127colin ROONEY 40-49 Men DNF-----
  • The Full Growler - 18-29 Men
Place Bib Racer name Affiliation Category Finish time
1136Alex SCHULTZThe Kind Bikes and Skis 18-29 Men 6:20:57--100%19.51%24.38%
295Devon PIADouble Shot Cyclery 18-29 Men 7:14:24+53:27+14.03%87.70%8.22%13.77%
330David ANSEL 18-29 Men 7:24:41+1:03:44+16.73%85.67%6.05%11.73%
4112Donald RANSIN 18-29 Men 8:23:47+2:02:50+32.24%75.62%-6.44%0.00%
5111Edward ULSCHMID 18-29 Men 8:23:48+2:02:51+32.25%75.62%-6.44%0.00%
5114Kristopher AUGER 18-29 Men 8:23:48+2:02:51+32.25%75.62%-6.44%0.00%
7110Casey MARTINMountain Wellness 18-29 Men 9:01:48+2:40:51+42.22%70.31%-14.47%-7.55%
-102Cesar TIDRICKRubber Side Down 18-29 Men DNF-----
  • The Full Growler - 18-29 Women
Place Bib Racer name Affiliation Category Finish time
1148Devan HANEY 18-29 Women 9:19:22--100%0.00%0.00%
-89Olivia SHANNONNorth End Dental (Colorado Springs) 18-29 Women DNF-----
  • The Full Growler - 30-39 Men
Place Bib Racer name Affiliation Category Finish time
115Tom KAVANAUGHHigher Cadence Montrose,CO 30-39 Men 6:22:29--100%16.09%10.86%
216Ryan MARSHALLBasalt Bike & Ski 30-39 Men 6:23:45+1:16+0.33%99.67%15.82%10.56%
3101Eric FOSSELLCOS Racing 30-39 Men 6:37:37+15:08+3.96%96.19%12.77%7.33%
491Michael MARTIN 30-39 Men 6:43:48+21:19+5.57%94.72%11.42%5.89%
5118Tim WILCOX 30-39 Men 6:45:02+22:33+5.90%94.43%11.15%5.60%
6119John RYAN 30-39 Men 6:46:17+23:48+6.22%94.14%10.87%5.31%
723Kevin KAUCHERbikeparts.com 30-39 Men 6:47:05+24:36+6.43%93.96%10.70%5.12%
825Kevin JACOBILimelight 30-39 Men 6:52:59+30:30+7.97%92.61%9.40%3.75%
937Joe SWEENEY 30-39 Men 6:58:08+35:39+9.32%91.47%8.27%2.55%
10149Seth HOLMES 30-39 Men 6:59:54+37:25+9.78%91.09%7.89%2.14%
11113Russ PATTERSON 30-39 Men 7:00:31+38:02+9.94%90.96%7.75%1.99%
1254Jeremiah GREIF 30-39 Men 7:01:45+39:16+10.27%90.69%7.48%1.71%
1352Michael FRANCORaceco / Elevated Legs / MTBCoach 30-39 Men 7:02:08+39:39+10.37%90.61%7.40%1.62%
145John PHELPS 30-39 Men 7:09:04+46:35+12.18%89.14%5.87%0.00%
15137Heath SPECKMAN 30-39 Men 7:09:45+47:16+12.36%89.00%5.73%-0.16%
1643James FORDPedal Racing 30-39 Men 7:18:23+55:54+14.62%87.25%3.83%-2.17%
1771Tim TRACYWalts Bike Shop 30-39 Men 7:43:30+1:21:01+21.18%82.52%-1.68%-8.03%
1865Jeremy ISAACCirca Real Estate Group 30-39 Men 7:45:36+1:23:07+21.73%82.15%-2.14%-8.51%
1941Robert UMLANDPhoenix Cyclery 30-39 Men 7:48:33+1:26:04+22.50%81.63%-2.79%-9.20%
20125Jonathan LANGWORTHYTeam Red Wheel 30-39 Men 8:01:30+1:39:01+25.89%79.44%-5.63%-12.22%
2176Greg CONROY 30-39 Men 8:48:30+2:26:01+38.18%72.37%-15.94%-23.17%
22117Michael O'SHEAScurvy Dogs 30-39 Men 8:53:31+2:31:02+39.49%71.69%-17.04%-24.34%
23134Michael KRAYNA 30-39 Men 8:55:22+2:32:53+39.97%71.44%-17.44%-24.77%
24131Aaron JOHNSON 30-39 Men 9:08:40+2:46:11+43.45%69.71%-20.36%-27.87%
25132Zach JOHNSONSol Luna Soalr 30-39 Men 9:19:27+2:56:58+46.27%68.37%-22.73%-30.39%
26138Daniel MEYER 30-39 Men 9:22:17+2:59:48+47.01%68.02%-23.35%-31.05%
26141James SCHAFERA1 Fiber Optics LLC/ Misfits 30-39 Men 9:22:17+2:59:48+47.01%68.02%-23.35%-31.05%
-79Harry MALECKI 30-39 Men DNF-----
-31Michael FLOYD 30-39 Men DNF-----
-98Kyle GILLILAND 30-39 Men DNF-----
-154Joshua GROSSMAN 30-39 Men DNF-----
-103Matthew BOUMPHREY 30-39 Men DNF-----
  • The Full Growler - 30-39 Women
Place Bib Racer name Affiliation Category Finish time
185Morgan HILL 30-39 Women 8:18:50--100%2.04%1.59%
2156Kelly RyanSan Juan Huts 30-39 Women 8:19:45+0:55+0.18%99.82%1.86%1.41%
333Megan RIEPMA 30-39 Women 8:34:01+15:11+3.04%97.05%-0.94%-1.41%
499Angela HARNEYTeam Meso Harney 30-39 Women 8:44:16+25:26+5.10%95.15%-2.96%-3.43%
  • The Full Growler - 40-49 Men
Place Bib Racer name Affiliation Category Finish time
127Wesley SANDOVAL 40-49 Men 6:00:31--100%23.18%25.51%
2153Brian JENSENTradewind Energy Cycling Team 40-49 Men 6:22:18+21:47+6.04%94.30%18.54%21.01%
380Andre BRETONNorthern Colorado Grassroots Riders 40-49 Men 6:23:14+22:43+6.30%94.07%18.34%20.81%
439Marvin SANDOVAL 40-49 Men 6:42:10+41:39+11.55%89.64%14.31%16.90%
524Nathan BERGElevate PHW / Bikeworks 40-49 Men 6:49:26+48:55+13.57%88.05%12.76%15.40%
6123chris PARKSoinkerboinkerporkerpackers 40-49 Men 7:02:02+1:01:31+17.06%85.42%10.07%12.80%
7135Darren MUSE 40-49 Men 7:02:41+1:02:10+17.24%85.29%9.94%12.66%
8147Thomas VERRYRock N Roll Sports 40-49 Men 7:06:18+1:05:47+18.25%84.57%9.17%11.92%
975Heiner MESSNER 40-49 Men 7:15:47+1:15:16+20.88%82.73%7.14%9.96%
10108Keith FISHERcraftsmen construction 40-49 Men 7:23:32+1:23:01+23.03%81.28%5.49%8.35%
11142Matthew ERICKSON 40-49 Men 7:33:46+1:33:15+25.87%79.45%3.31%6.24%
12106neil BECWAR 40-49 Men 7:37:24+1:36:53+26.87%78.82%2.54%5.49%
1378carl BENEFIEL 40-49 Men 7:52:50+1:52:19+31.15%76.25%-0.75%2.30%
14126Justin NELSON 40-49 Men 8:03:58+2:03:27+34.24%74.49%-3.12%0.00%
1545Warrick JERVIS 40-49 Men 8:04:44+2:04:13+34.46%74.37%-3.29%-0.16%
1649Joel BUDACKI 40-49 Men 8:07:22+2:06:51+35.19%73.97%-3.85%-0.70%
1786Alex KNOLMontbike Amposta 40-49 Men 8:09:57+2:09:26+35.90%73.58%-4.40%-1.24%
1829Mark HEFFRON 40-49 Men 8:11:36+2:11:05+36.36%73.34%-4.75%-1.58%
1996John MOUNT 40-49 Men 8:14:06+2:13:35+37.05%72.96%-5.28%-2.09%
20155Greg EXLINE 40-49 Men 8:16:41+2:16:10+37.77%72.58%-5.83%-2.63%
2163Dan GUMPHoney Stinger Hive 40-49 Men 8:43:12+2:42:41+45.13%68.91%-11.48%-8.11%
2290Fritz KREMBS 40-49 Men 8:53:08+2:52:37+47.88%67.62%-13.60%-10.16%
2361Brett HAWKINS 40-49 Men 8:58:16+2:57:45+49.30%66.98%-14.69%-11.22%
2460Dominic GARCIA 40-49 Men 8:58:27+2:57:56+49.36%66.95%-14.73%-11.26%
2555Jason JANELLE 40-49 Men 9:00:23+2:59:52+49.89%66.71%-15.14%-11.66%
2669Sean STEEVESRadio Free Denver Cycling Club 40-49 Men 9:05:50+3:05:19+51.40%66.05%-16.30%-12.78%
27122Gabriel GOMEZ 40-49 Men 9:11:49+3:11:18+53.06%65.33%-17.58%-14.02%
-38Adam YOCULAN 40-49 Men DNF-----
-72Glenn FARRANT 40-49 Men DNF-----
-50Jeff STEINHOFF 40-49 Men DNF-----
-97Donald DORITYAvout 40-49 Men DNF-----
-47Chris ARTERBURNPeople For Bikes 40-49 Men DNF-----
-124Chad MORTENSEN 40-49 Men DNF-----
-42Grahan WHITAKER 40-49 Men DNF-----
-127colin ROONEY 40-49 Men DNF-----
  • The Full Growler - 40-49 Women
Place Bib Racer name Affiliation Category Finish time
111Laura ANDERSON 40-49 Women 7:57:17--100%2.86%2.86%
2152Sarah STUBBEgO Orthopedics 40-49 Women 8:25:24+28:07+5.89%94.44%-2.86%-2.86%
-48Jennifer BOLDRYPeople For Bikes 40-49 Women DNF-----
-94Michelle FRECKLETON 40-49 Women DNF-----
  • The Full Growler - 50+ Women
Place Bib Racer name Affiliation Category Finish time
110Janet ROSSDeterminator 50+ Women 9:05:29--100%0.00%0.00%
  • The Full Growler - 50-59 Men
Place Bib Racer name Affiliation Category Finish time
193Curt WILHELMElevated Legs/MTBCoach.com 50-59 Men 6:36:41--100%13.51%13.79%
2120Eddie URCADEZGroove Subaru Excel Sports 50-59 Men 7:20:08+43:27+10.95%90.13%4.04%4.35%
336Mike DRIVERVisitFruita.com 50-59 Men 7:26:34+49:53+12.58%88.83%2.63%2.95%
43Jarral Ryter 50-59 Men 7:40:08+1:03:27+16.00%86.21%-0.32%0.00%
587Eamonn ROONEYThe Irish Bastard 50-59 Men 7:45:34+1:08:53+17.36%85.20%-1.51%-1.18%
6151Stuart WALSWORTHPeopleForBikes 50-59 Men 7:49:06+1:12:25+18.26%84.56%-2.28%-1.95%
732Chris WITHERSOld Greenwich Builders 50-59 Men 8:52:22+2:15:41+34.20%74.51%-16.07%-15.70%
-73Bernie LAFLEUR 50-59 Men DNF-----
  • The Full Growler - 60+ Men
Place Bib Racer name Affiliation Category Finish time
1115Gary PIERSONWestern Mountain Sports 60+ Men 9:13:29--100%0.00%0.00%
  • The Full Growler - Clydesdale (over 200 lbs)
Place Bib Racer name Affiliation Category Finish time
159Matt HUNTBurrito Slayers Clydesdale (over 200 lbs) 8:32:44--100%3.55%2.96%
258Randall ALFANO Clydesdale (over 200 lbs) 8:48:22+15:38+3.05%97.04%0.60%0.00%
377Jordan PYHTILAAre we there yet racing Clydesdale (over 200 lbs) 9:13:38+40:54+7.98%92.61%-4.15%-4.78%
-44Chris BROCKMEIER Clydesdale (over 200 lbs) DNF-----
  • The Full Growler - Collegiate Men
Place Bib Racer name Affiliation Category Finish time
151Zachary RICHARDSONWestern Colorado University Collegiate Men 6:05:53--100%0.00%0.00%
  • The Full Growler - Open Singlespeed Men
Place Bib Racer name Affiliation Category Finish time
1144Bryan DILLON Open Singlespeed Men 6:19:16--100%11.55%8.72%
2145Dan DURLANDPro Cycling Open Singlespeed Men 6:35:10+15:54+4.19%95.98%7.85%4.89%
3109Matt ARONSON Open Singlespeed Men 6:39:04+19:48+5.22%95.04%6.94%3.95%
464Jack MORGAN Open Singlespeed Men 6:50:01+30:45+8.11%92.50%4.38%1.32%
540Mark NESLINEVAIL Jr Cycling Open Singlespeed Men 6:50:40+31:24+8.28%92.35%4.23%1.16%
6105Jefe BRANHAMWaltworks Open Singlespeed Men 7:00:19+41:03+10.82%90.23%1.98%-1.16%
718Jason IRWINProCycling Open Singlespeed Men 7:06:24+47:08+12.43%88.95%0.56%-2.63%
834Eric FRESON Open Singlespeed Men 7:11:34+52:18+13.79%87.88%-0.64%-3.87%
921Lance PALUMBO Open Singlespeed Men 8:11:34+1:52:18+29.61%77.15%-14.64%-18.31%
10116Brae PATTENAll Sports Replay Open Singlespeed Men 8:44:02+2:24:46+38.17%72.37%-22.21%-26.12%
-56Matt JONESMore Better Open Singlespeed Men DNF-----
-14Michael GIRALDI Open Singlespeed Men DNF-----
  • The Full Growler - Pro Men
Place Bib Racer name Affiliation Category Finish time
1150Ben PARMANNCGR Pro Men 5:25:42--100%12.84%12.20%
26timon FISHSticky Racing Pro Men 5:28:56+3:14+0.99%99.02%11.97%11.33%
39Tyler JONESKind Bikes and Skis | Cutaway USA Pro Men 5:33:54+8:12+2.52%97.54%10.64%9.99%
4129Samuel DOLZANIHONEY STINGER / BONTRAGER Pro Men 5:40:48+15:06+4.64%95.57%8.80%8.13%
517Thomas HERMANGroove Subaru Pro Men 5:46:09+20:27+6.28%94.09%7.37%6.69%
6146Chris ALSTRINWhite Pine Athletics / Carbo Rocket Pro Men 5:49:19+23:37+7.25%93.24%6.52%5.84%
767Bryan ALDERSTrainingPeaks/Yeti/Pactimo Pro Men 6:07:02+41:20+12.69%88.74%1.78%1.06%
8128jiri SENKYRIK Pro Men 6:07:59+42:17+12.98%88.51%1.52%0.80%
988Chris SHANNONNorth End Dental (Colorado Springs) Pro Men 6:10:58+45:16+13.90%87.80%0.73%0.00%
10100Seth HARNEYTeam Meso Harney Pro Men 6:11:26+45:44+14.04%87.69%0.60%-0.13%
1166Darrell ROUNDYRocky Mountain Racing Pro Men 6:16:50+51:08+15.70%86.43%-0.84%-1.58%
12139Nate WILLIARD Pro Men 6:17:37+51:55+15.94%86.25%-1.05%-1.79%
1335Kevin CONERLY Pro Men 6:28:53+1:03:11+19.40%83.75%-4.07%-4.83%
1419Bret Billings Pro Men 6:34:00+1:08:18+20.97%82.66%-5.44%-6.21%
1522Nathan COLLIERHoney Stinger/Bontrager MTB Team Pro Men 6:43:40+1:17:58+23.94%80.69%-8.03%-8.81%
1682Seth MICHAELLost Trail Cycle Co. Pro Men 7:07:02+1:41:20+31.11%76.27%-14.28%-15.11%
1784Rob RINGLE Pro Men 8:02:15+2:36:33+48.07%67.54%-29.06%-30.00%
-133Zachary DOLZANIHoney Stinger Pro Men DNF-----
  • The Full Growler - Pro Women
Place Bib Racer name Affiliation Category Finish time
18Sparky MOIR SEARSPivot / MRP / Ergon Pro Women 7:38:01--100%0.98%0.81%
24Tracy THELENThelen Coaching / ProCycling Pro Women 7:41:45+3:44+0.82%99.19%0.17%0.00%
3140Erin WEBERFoundation Cycles/Enduro Bites Pro Women 7:47:50+9:49+2.14%97.90%-1.15%-1.32%
  • Sunday's Half Growler - Overall
Place Bib Racer name Affiliation Category Finish time
1413Chance LARSON Men 2:55:28--100%34.05%32.77%
2465Zach PICKETTgO Orthopedics/Honey Stinger Men 3:09:15+13:47+7.86%92.72%28.87%27.49%
3460Kevin NOREEN Men 3:13:42+18:14+10.39%90.59%27.20%25.78%
4404Parker Macy Men 3:24:21+28:53+16.46%85.87%23.19%21.70%
5400Michael VOTHMuleterro Men 3:28:17+32:49+18.70%84.24%21.72%20.19%
6410Eric Robinson Men 3:31:17+35:49+20.41%83.05%20.59%19.04%
7509Kelly LEINEN Men 3:33:35+38:07+21.72%82.15%19.72%18.16%
8456Micah BRAY Men 3:36:56+41:28+23.63%80.89%18.46%16.88%
9496Jan KOORNLimelight Hotels Men 3:37:30+42:02+23.96%80.67%18.25%16.66%
10459Daryn HOBBS Men 3:39:30+44:02+25.09%79.94%17.50%15.90%
11411Dan BECKER Men 3:41:13+45:45+26.07%79.32%16.86%15.24%
12471Derek CHODOROWSKI Men 3:43:00+47:32+27.09%78.68%16.18%14.55%
13506Dan DILLMAN Men 3:44:19+48:51+27.84%78.22%15.69%14.05%
14470Craig SIEVINGBootdoctors Men 3:46:57+51:29+29.34%77.32%14.70%13.04%
15472Robert TOBIN Men 3:47:01+51:33+29.38%77.29%14.68%13.01%
16447Stephen MABRY Men 3:50:13+54:45+31.20%76.22%13.47%11.79%
17412Duncan KOEHN Men 3:51:43+56:15+32.06%75.72%12.91%11.21%
18493Joe BACIGALUPO Men 3:54:55+59:27+33.88%74.69%11.71%9.99%
19482Rusty GARDUNO Men 3:58:53+1:03:25+36.14%73.45%10.21%8.47%
20492Erick ARANEDA Men 4:02:29+1:07:01+38.19%72.36%8.86%7.09%
21522Kory MUTLU Men 4:02:42+1:07:14+38.32%72.30%8.78%7.01%
22524Emilio DIPRETORO Men 4:02:43+1:07:15+38.33%72.29%8.77%7.00%
23479Arthur GIFTOS Men 4:02:48+1:07:20+38.37%72.27%8.74%6.97%
24501David KLINE Men 4:03:45+1:08:17+38.92%71.99%8.39%6.60%
25510Anders GUSTAFSON Men 4:03:49+1:08:21+38.95%71.97%8.36%6.58%
26498Chris SCHUMANN Men 4:04:33+1:09:05+39.37%71.75%8.09%6.30%
27494Gaja WILSONMe, myself and I Women 4:06:53+1:11:25+40.70%71.07%7.21%5.40%
28500Kyle WILLIAMS9Seventy Racing Men 4:07:27+1:11:59+41.02%70.91%7.00%5.19%
29518Jeremy FRANZ Men 4:11:16+1:15:48+43.20%69.83%5.56%3.72%
30462Rodrigo JIMENEZ Men 4:12:43+1:17:15+44.03%69.43%5.02%3.17%
31467Jed WILKINSON Men 4:12:44+1:17:16+44.03%69.43%5.01%3.16%
32521alison SANDOVAL Women 4:16:38+1:21:10+46.26%68.37%3.54%1.67%
33405Jim LOVELACE Men 4:16:50+1:21:22+46.37%68.32%3.47%1.59%
34450Jorge PEREZViolet Crown Men 4:17:49+1:22:21+46.93%68.06%3.10%1.21%
35489Mike O'BRIEN Men 4:18:28+1:23:00+47.30%67.89%2.85%0.96%
36516Stewart IRVING Men 4:19:39+1:24:11+47.98%67.58%2.41%0.51%
37523Mark A CHAVEZ Men 4:20:42+1:25:14+48.58%67.31%2.02%0.11%
38402Steve SHELAFO Men 4:20:44+1:25:16+48.59%67.30%2.00%0.10%
39483Bryson DARNEL Men 4:21:14+1:25:46+48.88%67.17%1.81%-0.10%
40481Colleen FARNUM Women 4:22:16+1:26:48+49.47%66.90%1.43%-0.49%
41475Brooke MORAN Women 4:23:46+1:28:18+50.32%66.52%0.86%-1.07%
42505Carlos VELADOBrick Oven Men 4:24:25+1:28:57+50.69%66.36%0.62%-1.32%
43517Simon BALL Men 4:24:46+1:29:18+50.89%66.27%0.49%-1.45%
44495Matt HOFFMANLeadout Racing/ West Michigan Bike & Fit Men 4:26:13+1:30:45+51.72%65.91%-0.06%-2.01%
45512Steve LOYDn/a Men 4:29:39+1:34:11+53.68%65.07%-1.35%-3.32%
46408Betsy WELSH Women 4:29:55+1:34:27+53.83%65.01%-1.45%-3.42%
47488Anna SIMPSON Women 4:30:04+1:34:36+53.91%64.97%-1.51%-3.48%
48107Pierluigi CUMO Men 4:30:13+1:34:45+54.00%64.94%-1.56%-3.54%
49484Ryan JONES Men 4:30:31+1:35:03+54.17%64.86%-1.67%-3.65%
50514Caroline HAINES Women 4:32:47+1:37:19+55.46%64.32%-2.53%-4.52%
51519Heidi GUROV9Seventy Racing Women 4:34:04+1:38:36+56.19%64.02%-3.01%-5.01%
52490Jamson HENDLERTeam Alchemist Men 4:35:10+1:39:42+56.82%63.77%-3.42%-5.43%
53476tom KEATING Men 4:36:39+1:41:11+57.67%63.43%-3.98%-6.00%
54520Joshem GIBSON Men 4:36:46+1:41:18+57.73%63.40%-4.02%-6.05%
55511Morgan LOMMELEPeopleForBikes Women 4:36:48+1:41:20+57.75%63.39%-4.04%-6.06%
56463Matt HEIMERDINGERScurvy Dogs Men 4:38:04+1:42:36+58.47%63.10%-4.51%-6.55%
57468Conor DAWSONGunnison High School Mountain Bike Team Men 4:44:04+1:48:36+61.89%61.77%-6.77%-8.84%
58448Jenn DICEPeopleForBikes Women 4:52:25+1:56:57+66.65%60.01%-9.91%-12.04%
59503Joe GEMPERLINE Men 4:53:15+1:57:47+67.13%59.84%-10.22%-12.36%
60513Dan PATTEN Men 4:53:20+1:57:52+67.17%59.82%-10.25%-12.40%
61486Tim PATTENAll Sports Replay Men 4:57:18+2:01:50+69.43%59.02%-11.74%-13.92%
62414Anna CAMPBELL Women 4:59:11+2:03:43+70.51%58.65%-12.45%-14.64%
63504Nathan DURHAM Men 5:00:48+2:05:20+71.43%58.33%-13.06%-15.26%
64485Christopher COHAN1962 Men 5:02:47+2:07:19+72.56%57.95%-13.80%-16.02%
65407Brent BENGSTON Men 5:04:12+2:08:44+73.37%57.68%-14.33%-16.56%
66409Kristen OSBORN Women 5:05:32+2:10:04+74.13%57.43%-14.84%-17.07%
67403Kent LUCAS Men 5:09:55+2:14:27+76.62%56.62%-16.48%-18.75%
68497Rick O'BLOCK Men 5:13:03+2:17:35+78.41%56.05%-17.66%-19.95%
69474Joshua HARRISON Men 5:21:56+2:26:28+83.47%54.50%-21.00%-23.35%
70473John CALDER Men 5:38:19+2:42:51+92.81%51.86%-27.16%-29.63%
71491Tara LONGNECKERTeam Alchemist Women 5:43:59+2:48:31+96.04%51.01%-29.29%-31.80%
72451Lawrence CASEBlowin Chains Men 5:45:42+2:50:14+97.02%50.76%-29.93%-32.46%
73449Mark MCKINNON Men 5:54:12+2:58:44+101.86%49.54%-33.13%-35.72%
74515Pieter LEENHOUTS Men 6:16:33+3:21:05+114.60%46.60%-41.53%-44.28%
75508Shawn PIERCE Men 6:18:31+3:23:03+115.72%46.36%-42.27%-45.03%
76499Kelkenny BILEEN Men 7:09:31+4:14:03+144.79%40.85%-61.44%-64.58%
-452James KATZ Men DNF-----
-453Joe URNISE Men DNF-----
  • Sunday's Half Growler - Men
Place Bib Racer name Affiliation Category Finish time
1413Chance LARSON Men 2:55:28--100%33.35%31.94%
2465Zach PICKETTgO Orthopedics/Honey Stinger Men 3:09:15+13:47+7.86%92.72%28.12%26.60%
3460Kevin NOREEN Men 3:13:42+18:14+10.39%90.59%26.43%24.87%
4404Parker Macy Men 3:24:21+28:53+16.46%85.87%22.38%20.74%
5400Michael VOTHMuleterro Men 3:28:17+32:49+18.70%84.24%20.89%19.21%
6410Eric Robinson Men 3:31:17+35:49+20.41%83.05%19.75%18.05%
7509Kelly LEINEN Men 3:33:35+38:07+21.72%82.15%18.87%17.16%
8456Micah BRAY Men 3:36:56+41:28+23.63%80.89%17.60%15.86%
9496Jan KOORNLimelight Hotels Men 3:37:30+42:02+23.96%80.67%17.39%15.64%
10459Daryn HOBBS Men 3:39:30+44:02+25.09%79.94%16.63%14.86%
11411Dan BECKER Men 3:41:13+45:45+26.07%79.32%15.98%14.20%
12471Derek CHODOROWSKI Men 3:43:00+47:32+27.09%78.68%15.30%13.50%
13506Dan DILLMAN Men 3:44:19+48:51+27.84%78.22%14.80%12.99%
14470Craig SIEVINGBootdoctors Men 3:46:57+51:29+29.34%77.32%13.80%11.97%
15472Robert TOBIN Men 3:47:01+51:33+29.38%77.29%13.77%11.95%
16447Stephen MABRY Men 3:50:13+54:45+31.20%76.22%12.56%10.71%
17412Duncan KOEHN Men 3:51:43+56:15+32.06%75.72%11.99%10.12%
18493Joe BACIGALUPO Men 3:54:55+59:27+33.88%74.69%10.77%8.88%
19482Rusty GARDUNO Men 3:58:53+1:03:25+36.14%73.45%9.26%7.34%
20492Erick ARANEDA Men 4:02:29+1:07:01+38.19%72.36%7.90%5.95%
21522Kory MUTLU Men 4:02:42+1:07:14+38.32%72.30%7.82%5.86%
22524Emilio DIPRETORO Men 4:02:43+1:07:15+38.33%72.29%7.81%5.86%
23479Arthur GIFTOS Men 4:02:48+1:07:20+38.37%72.27%7.78%5.82%
24501David KLINE Men 4:03:45+1:08:17+38.92%71.99%7.42%5.46%
25510Anders GUSTAFSON Men 4:03:49+1:08:21+38.95%71.97%7.39%5.43%
26498Chris SCHUMANN Men 4:04:33+1:09:05+39.37%71.75%7.11%5.15%
27500Kyle WILLIAMS9Seventy Racing Men 4:07:27+1:11:59+41.02%70.91%6.01%4.02%
28518Jeremy FRANZ Men 4:11:16+1:15:48+43.20%69.83%4.56%2.54%
29462Rodrigo JIMENEZ Men 4:12:43+1:17:15+44.03%69.43%4.01%1.98%
30467Jed WILKINSON Men 4:12:44+1:17:16+44.03%69.43%4.00%1.97%
31405Jim LOVELACE Men 4:16:50+1:21:22+46.37%68.32%2.45%0.38%
32450Jorge PEREZViolet Crown Men 4:17:49+1:22:21+46.93%68.06%2.07%0.00%
33489Mike O'BRIEN Men 4:18:28+1:23:00+47.30%67.89%1.83%-0.25%
34516Stewart IRVING Men 4:19:39+1:24:11+47.98%67.58%1.38%-0.71%
35523Mark A CHAVEZ Men 4:20:42+1:25:14+48.58%67.31%0.98%-1.12%
36402Steve SHELAFO Men 4:20:44+1:25:16+48.59%67.30%0.97%-1.13%
37483Bryson DARNEL Men 4:21:14+1:25:46+48.88%67.17%0.78%-1.33%
38505Carlos VELADOBrick Oven Men 4:24:25+1:28:57+50.69%66.36%-0.43%-2.56%
39517Simon BALL Men 4:24:46+1:29:18+50.89%66.27%-0.57%-2.70%
40495Matt HOFFMANLeadout Racing/ West Michigan Bike & Fit Men 4:26:13+1:30:45+51.72%65.91%-1.12%-3.26%
41512Steve LOYDn/a Men 4:29:39+1:34:11+53.68%65.07%-2.42%-4.59%
42107Pierluigi CUMO Men 4:30:13+1:34:45+54.00%64.94%-2.64%-4.81%
43484Ryan JONES Men 4:30:31+1:35:03+54.17%64.86%-2.75%-4.93%
44490Jamson HENDLERTeam Alchemist Men 4:35:10+1:39:42+56.82%63.77%-4.52%-6.73%
45476tom KEATING Men 4:36:39+1:41:11+57.67%63.43%-5.08%-7.30%
46520Joshem GIBSON Men 4:36:46+1:41:18+57.73%63.40%-5.12%-7.35%
47463Matt HEIMERDINGERScurvy Dogs Men 4:38:04+1:42:36+58.47%63.10%-5.62%-7.85%
48468Conor DAWSONGunnison High School Mountain Bike Team Men 4:44:04+1:48:36+61.89%61.77%-7.90%-10.18%
49503Joe GEMPERLINE Men 4:53:15+1:57:47+67.13%59.84%-11.39%-13.74%
50513Dan PATTEN Men 4:53:20+1:57:52+67.17%59.82%-11.42%-13.78%
51486Tim PATTENAll Sports Replay Men 4:57:18+2:01:50+69.43%59.02%-12.92%-15.31%
52504Nathan DURHAM Men 5:00:48+2:05:20+71.43%58.33%-14.25%-16.67%
53485Christopher COHAN1962 Men 5:02:47+2:07:19+72.56%57.95%-15.01%-17.44%
54407Brent BENGSTON Men 5:04:12+2:08:44+73.37%57.68%-15.54%-17.99%
55403Kent LUCAS Men 5:09:55+2:14:27+76.62%56.62%-17.72%-20.21%
56497Rick O'BLOCK Men 5:13:03+2:17:35+78.41%56.05%-18.91%-21.42%
57474Joshua HARRISON Men 5:21:56+2:26:28+83.47%54.50%-22.28%-24.87%
58473John CALDER Men 5:38:19+2:42:51+92.81%51.86%-28.50%-31.22%
59451Lawrence CASEBlowin Chains Men 5:45:42+2:50:14+97.02%50.76%-31.31%-34.09%
60449Mark MCKINNON Men 5:54:12+2:58:44+101.86%49.54%-34.54%-37.38%
61515Pieter LEENHOUTS Men 6:16:33+3:21:05+114.60%46.60%-43.02%-46.05%
62508Shawn PIERCE Men 6:18:31+3:23:03+115.72%46.36%-43.77%-46.82%
63499Kelkenny BILEEN Men 7:09:31+4:14:03+144.79%40.85%-63.14%-66.60%
-452James KATZ Men DNF-----
-453Joe URNISE Men DNF-----
  • Sunday's Half Growler - Women
Place Bib Racer name Affiliation Category Finish time
1494Gaja WILSONMe, myself and I Women 4:06:53--100%11.69%9.49%
2521alison SANDOVAL Women 4:16:38+9:45+3.95%96.20%8.20%5.92%
3481Colleen FARNUM Women 4:22:16+15:23+6.23%94.13%6.19%3.86%
4475Brooke MORAN Women 4:23:46+16:53+6.84%93.60%5.65%3.31%
5408Betsy WELSH Women 4:29:55+23:02+9.33%91.47%3.45%1.05%
6488Anna SIMPSON Women 4:30:04+23:11+9.39%91.42%3.40%1.00%
7514Caroline HAINES Women 4:32:47+25:54+10.49%90.51%2.42%0.00%
8519Heidi GUROV9Seventy Racing Women 4:34:04+27:11+11.01%90.08%1.97%-0.47%
9511Morgan LOMMELEPeopleForBikes Women 4:36:48+29:55+12.12%89.19%0.99%-1.47%
10448Jenn DICEPeopleForBikes Women 4:52:25+45:32+18.44%84.43%-4.60%-7.20%
11414Anna CAMPBELL Women 4:59:11+52:18+21.18%82.52%-7.02%-9.68%
12409Kristen OSBORN Women 5:05:32+58:39+23.76%80.80%-9.29%-12.01%
13491Tara LONGNECKERTeam Alchemist Women 5:43:59+1:37:06+39.33%71.77%-23.04%-26.10%